sensor_id;sensor_type;location;lat;lon;timestamp;P1;durP1;ratioP1;P2;durP2;ratioP2
42246;SDS011;27913;42.722;23.268;2023-02-12T00:01:38;13.10;;;5.68;;
42246;SDS011;27913;42.722;23.268;2023-02-12T00:04:04;10.82;;;4.30;;
42246;SDS011;27913;42.722;23.268;2023-02-12T00:06:29;9.30;;;3.22;;
42246;SDS011;27913;42.722;23.268;2023-02-12T00:08:55;13.07;;;5.25;;
42246;SDS011;27913;42.722;23.268;2023-02-12T00:11:22;10.77;;;4.70;;
42246;SDS011;27913;42.722;23.268;2023-02-12T00:13:50;12.50;;;5.20;;
42246;SDS011;27913;42.722;23.268;2023-02-12T00:16:17;11.90;;;4.80;;
42246;SDS011;27913;42.722;23.268;2023-02-12T00:18:45;10.18;;;3.53;;
42246;SDS011;27913;42.722;23.268;2023-02-12T00:21:11;6.63;;;2.90;;
42246;SDS011;27913;42.722;23.268;2023-02-12T00:23:38;9.73;;;3.30;;
42246;SDS011;27913;42.722;23.268;2023-02-12T00:26:38;12.45;;;4.80;;
42246;SDS011;27913;42.722;23.268;2023-02-12T00:28:56;14.27;;;5.05;;
42246;SDS011;27913;42.722;23.268;2023-02-12T00:31:23;12.95;;;4.90;;
42246;SDS011;27913;42.722;23.268;2023-02-12T00:33:52;14.00;;;5.05;;
42246;SDS011;27913;42.722;23.268;2023-02-12T00:36:19;14.30;;;5.10;;
42246;SDS011;27913;42.722;23.268;2023-02-12T00:38:47;11.13;;;4.15;;
42246;SDS011;27913;42.722;23.268;2023-02-12T00:41:14;12.40;;;4.70;;
42246;SDS011;27913;42.722;23.268;2023-02-12T00:43:40;9.95;;;4.00;;
42246;SDS011;27913;42.722;23.268;2023-02-12T00:46:06;13.13;;;4.55;;
42246;SDS011;27913;42.722;23.268;2023-02-12T00:48:33;12.65;;;4.80;;
42246;SDS011;27913;42.722;23.268;2023-02-12T00:50:59;11.63;;;4.38;;
42246;SDS011;27913;42.722;23.268;2023-02-12T00:53:24;8.98;;;3.88;;
42246;SDS011;27913;42.722;23.268;2023-02-12T00:55:50;10.43;;;4.43;;
42246;SDS011;27913;42.722;23.268;2023-02-12T00:58:15;10.10;;;3.80;;
42246;SDS011;27913;42.722;23.268;2023-02-12T01:03:16;13.57;;;5.63;;
42246;SDS011;27913;42.722;23.268;2023-02-12T01:05:42;14.45;;;5.13;;
42246;SDS011;27913;42.722;23.268;2023-02-12T01:08:10;6.35;;;2.35;;
42246;SDS011;27913;42.722;23.268;2023-02-12T01:10:36;10.93;;;4.38;;
42246;SDS011;27913;42.722;23.268;2023-02-12T01:13:01;11.85;;;4.65;;
42246;SDS011;27913;42.722;23.268;2023-02-12T01:15:27;7.32;;;3.13;;
42246;SDS011;27913;42.722;23.268;2023-02-12T01:17:52;10.82;;;4.07;;
42246;SDS011;27913;42.722;23.268;2023-02-12T01:20:19;4.57;;;1.63;;
42246;SDS011;27913;42.722;23.268;2023-02-12T01:22:47;1.38;;;0.75;;
42246;SDS011;27913;42.722;23.268;2023-02-12T01:25:12;7.65;;;1.23;;
42246;SDS011;27913;42.722;23.268;2023-02-12T01:27:38;8.13;;;3.03;;
42246;SDS011;27913;42.722;23.268;2023-02-12T01:30:04;12.40;;;4.40;;
42246;SDS011;27913;42.722;23.268;2023-02-12T01:32:32;7.25;;;2.90;;
42246;SDS011;27913;42.722;23.268;2023-02-12T01:34:59;12.73;;;3.42;;
42246;SDS011;27913;42.722;23.268;2023-02-12T01:37:24;9.82;;;3.38;;
42246;SDS011;27913;42.722;23.268;2023-02-12T01:39:50;10.70;;;5.05;;
42246;SDS011;27913;42.722;23.268;2023-02-12T01:42:15;10.32;;;3.70;;
42246;SDS011;27913;42.722;23.268;2023-02-12T01:47:36;9.52;;;3.10;;
42246;SDS011;27913;42.722;23.268;2023-02-12T01:50:02;14.30;;;5.15;;
42246;SDS011;27913;42.722;23.268;2023-02-12T01:52:29;12.13;;;4.38;;
42246;SDS011;27913;42.722;23.268;2023-02-12T01:54:59;13.03;;;4.53;;
42246;SDS011;27913;42.722;23.268;2023-02-12T01:57:27;11.40;;;2.88;;
42246;SDS011;27913;42.722;23.268;2023-02-12T01:59:56;12.73;;;4.13;;
42246;SDS011;27913;42.722;23.268;2023-02-12T02:02:24;6.72;;;2.45;;
42246;SDS011;27913;42.722;23.268;2023-02-12T02:04:51;13.30;;;5.35;;
42246;SDS011;27913;42.722;23.268;2023-02-12T02:07:21;6.55;;;3.08;;
42246;SDS011;27913;42.722;23.268;2023-02-12T02:09:47;15.60;;;6.93;;
42246;SDS011;27913;42.722;23.268;2023-02-12T02:12:12;4.75;;;2.60;;
42246;SDS011;27913;42.722;23.268;2023-02-12T02:14:57;10.65;;;4.28;;
42246;SDS011;27913;42.722;23.268;2023-02-12T02:17:34;8.38;;;3.65;;
42246;SDS011;27913;42.722;23.268;2023-02-12T02:34:07;14.82;;;5.53;;
42246;SDS011;27913;42.722;23.268;2023-02-12T02:36:43;12.15;;;4.28;;
42246;SDS011;27913;42.722;23.268;2023-02-12T02:39:17;17.15;;;6.75;;
42246;SDS011;27913;42.722;23.268;2023-02-12T02:44:15;12.45;;;4.30;;
42246;SDS011;27913;42.722;23.268;2023-02-12T02:46:45;11.80;;;3.85;;
42246;SDS011;27913;42.722;23.268;2023-02-12T02:49:15;13.95;;;5.85;;
42246;SDS011;27913;42.722;23.268;2023-02-12T02:51:46;13.30;;;5.68;;
42246;SDS011;27913;42.722;23.268;2023-02-12T02:54:18;11.55;;;5.22;;
42246;SDS011;27913;42.722;23.268;2023-02-12T02:56:50;13.82;;;4.97;;
42246;SDS011;27913;42.722;23.268;2023-02-12T02:59:22;10.80;;;4.75;;
42246;SDS011;27913;42.722;23.268;2023-02-12T03:01:58;11.93;;;4.53;;
42246;SDS011;27913;42.722;23.268;2023-02-12T03:04:29;14.10;;;5.65;;
42246;SDS011;27913;42.722;23.268;2023-02-12T03:07:05;15.88;;;5.30;;
42246;SDS011;27913;42.722;23.268;2023-02-12T03:09:39;14.15;;;5.75;;
42246;SDS011;27913;42.722;23.268;2023-02-12T03:12:16;14.10;;;5.00;;
42246;SDS011;27913;42.722;23.268;2023-02-12T03:14:58;13.52;;;5.47;;
42246;SDS011;27913;42.722;23.268;2023-02-12T03:17:30;13.15;;;5.05;;
42246;SDS011;27913;42.722;23.268;2023-02-12T03:20:04;11.70;;;5.03;;
42246;SDS011;27913;42.722;23.268;2023-02-12T03:22:35;13.52;;;5.65;;
42246;SDS011;27913;42.722;23.268;2023-02-12T03:25:12;20.63;;;6.97;;
42246;SDS011;27913;42.722;23.268;2023-02-12T03:27:43;16.45;;;6.43;;
42246;SDS011;27913;42.722;23.268;2023-02-12T03:30:18;19.45;;;7.43;;
42246;SDS011;27913;42.722;23.268;2023-02-12T03:33:02;11.18;;;4.55;;
42246;SDS011;27913;42.722;23.268;2023-02-12T03:38:41;15.10;;;6.22;;
42246;SDS011;27913;42.722;23.268;2023-02-12T03:41:17;12.98;;;5.43;;
42246;SDS011;27913;42.722;23.268;2023-02-12T03:43:53;14.90;;;5.60;;
42246;SDS011;27913;42.722;23.268;2023-02-12T03:49:21;7.07;;;2.58;;
42246;SDS011;27913;42.722;23.268;2023-02-12T03:51:51;12.68;;;4.40;;
42246;SDS011;27913;42.722;23.268;2023-02-12T03:54:18;19.42;;;7.97;;
42246;SDS011;27913;42.722;23.268;2023-02-12T03:56:49;14.90;;;6.00;;
42246;SDS011;27913;42.722;23.268;2023-02-12T03:59:20;13.95;;;5.07;;
42246;SDS011;27913;42.722;23.268;2023-02-12T04:01:48;13.95;;;5.15;;
42246;SDS011;27913;42.722;23.268;2023-02-12T04:04:15;12.88;;;5.20;;
42246;SDS011;27913;42.722;23.268;2023-02-12T04:06:42;18.65;;;6.82;;
42246;SDS011;27913;42.722;23.268;2023-02-12T04:09:10;17.83;;;5.80;;
42246;SDS011;27913;42.722;23.268;2023-02-12T04:14:52;13.10;;;4.28;;
42246;SDS011;27913;42.722;23.268;2023-02-12T04:31:19;15.90;;;6.85;;
42246;SDS011;27913;42.722;23.268;2023-02-12T04:33:49;17.23;;;6.28;;
42246;SDS011;27913;42.722;23.268;2023-02-12T04:39:21;15.02;;;6.43;;
42246;SDS011;27913;42.722;23.268;2023-02-12T04:41:50;18.38;;;6.20;;
42246;SDS011;27913;42.722;23.268;2023-02-12T04:44:26;15.38;;;5.18;;
42246;SDS011;27913;42.722;23.268;2023-02-12T04:46:53;13.27;;;5.53;;
42246;SDS011;27913;42.722;23.268;2023-02-12T04:49:19;9.30;;;4.15;;
42246;SDS011;27913;42.722;23.268;2023-02-12T04:51:46;11.30;;;5.05;;
42246;SDS011;27913;42.722;23.268;2023-02-12T04:54:13;13.07;;;5.32;;
42246;SDS011;27913;42.722;23.268;2023-02-12T04:56:39;13.85;;;4.60;;
42246;SDS011;27913;42.722;23.268;2023-02-12T04:59:05;17.05;;;6.53;;
42246;SDS011;27913;42.722;23.268;2023-02-12T05:01:35;16.45;;;5.93;;
42246;SDS011;27913;42.722;23.268;2023-02-12T05:04:01;8.70;;;4.07;;
42246;SDS011;27913;42.722;23.268;2023-02-12T05:06:28;15.63;;;5.70;;
42246;SDS011;27913;42.722;23.268;2023-02-12T05:08:57;18.92;;;7.80;;
42246;SDS011;27913;42.722;23.268;2023-02-12T05:11:22;13.50;;;6.32;;
42246;SDS011;27913;42.722;23.268;2023-02-12T05:13:51;13.75;;;6.00;;
42246;SDS011;27913;42.722;23.268;2023-02-12T05:16:18;15.73;;;7.78;;
42246;SDS011;27913;42.722;23.268;2023-02-12T05:18:44;12.95;;;4.63;;
42246;SDS011;27913;42.722;23.268;2023-02-12T05:21:09;14.13;;;7.22;;
42246;SDS011;27913;42.722;23.268;2023-02-12T05:23:36;12.00;;;5.55;;
42246;SDS011;27913;42.722;23.268;2023-02-12T05:26:04;18.80;;;7.63;;
42246;SDS011;27913;42.722;23.268;2023-02-12T05:28:31;12.90;;;5.90;;
42246;SDS011;27913;42.722;23.268;2023-02-12T05:31:04;14.85;;;6.07;;
42246;SDS011;27913;42.722;23.268;2023-02-12T05:33:30;18.10;;;8.00;;
42246;SDS011;27913;42.722;23.268;2023-02-12T05:36:06;13.65;;;6.47;;
42246;SDS011;27913;42.722;23.268;2023-02-12T05:38:33;17.15;;;7.35;;
42246;SDS011;27913;42.722;23.268;2023-02-12T05:41:13;13.80;;;6.13;;
42246;SDS011;27913;42.722;23.268;2023-02-12T05:46:06;15.25;;;7.13;;
42246;SDS011;27913;42.722;23.268;2023-02-12T05:48:32;17.50;;;7.32;;
42246;SDS011;27913;42.722;23.268;2023-02-12T05:51:06;19.10;;;9.30;;
42246;SDS011;27913;42.722;23.268;2023-02-12T05:53:32;20.52;;;8.68;;
42246;SDS011;27913;42.722;23.268;2023-02-12T05:58:32;12.55;;;6.35;;
42246;SDS011;27913;42.722;23.268;2023-02-12T06:00:57;14.38;;;6.13;;
42246;SDS011;27913;42.722;23.268;2023-02-12T06:03:23;15.52;;;6.55;;
42246;SDS011;27913;42.722;23.268;2023-02-12T06:05:51;18.23;;;8.70;;
42246;SDS011;27913;42.722;23.268;2023-02-12T06:08:17;16.70;;;8.32;;
42246;SDS011;27913;42.722;23.268;2023-02-12T06:10:43;18.48;;;7.85;;
42246;SDS011;27913;42.722;23.268;2023-02-12T06:13:08;17.42;;;7.43;;
42246;SDS011;27913;42.722;23.268;2023-02-12T06:15:37;17.73;;;8.35;;
42246;SDS011;27913;42.722;23.268;2023-02-12T06:18:03;17.67;;;7.95;;
42246;SDS011;27913;42.722;23.268;2023-02-12T06:20:28;15.68;;;7.15;;
42246;SDS011;27913;42.722;23.268;2023-02-12T06:22:54;8.60;;;3.55;;
42246;SDS011;27913;42.722;23.268;2023-02-12T06:25:19;19.02;;;8.27;;
42246;SDS011;27913;42.722;23.268;2023-02-12T06:27:45;16.70;;;7.78;;
42246;SDS011;27913;42.722;23.268;2023-02-12T06:30:11;17.25;;;7.07;;
42246;SDS011;27913;42.722;23.268;2023-02-12T06:32:36;14.00;;;6.75;;
42246;SDS011;27913;42.722;23.268;2023-02-12T06:35:02;13.88;;;6.28;;
42246;SDS011;27913;42.722;23.268;2023-02-12T06:37:28;14.73;;;6.68;;
42246;SDS011;27913;42.722;23.268;2023-02-12T06:39:53;15.75;;;6.68;;
42246;SDS011;27913;42.722;23.268;2023-02-12T06:42:18;17.02;;;7.25;;
42246;SDS011;27913;42.722;23.268;2023-02-12T06:44:44;16.38;;;6.88;;
42246;SDS011;27913;42.722;23.268;2023-02-12T06:47:10;20.30;;;7.70;;
42246;SDS011;27913;42.722;23.268;2023-02-12T06:49:36;14.80;;;5.38;;
42246;SDS011;27913;42.722;23.268;2023-02-12T06:52:02;16.83;;;7.80;;
42246;SDS011;27913;42.722;23.268;2023-02-12T06:54:28;10.07;;;4.68;;
42246;SDS011;27913;42.722;23.268;2023-02-12T06:56:53;13.18;;;5.30;;
42246;SDS011;27913;42.722;23.268;2023-02-12T06:59:19;13.65;;;6.05;;
42246;SDS011;27913;42.722;23.268;2023-02-12T07:01:45;15.45;;;6.53;;
42246;SDS011;27913;42.722;23.268;2023-02-12T07:04:10;10.52;;;4.75;;
42246;SDS011;27913;42.722;23.268;2023-02-12T07:06:36;13.15;;;5.00;;
42246;SDS011;27913;42.722;23.268;2023-02-12T07:09:02;10.38;;;4.95;;
42246;SDS011;27913;42.722;23.268;2023-02-12T07:11:32;16.80;;;6.78;;
42246;SDS011;27913;42.722;23.268;2023-02-12T07:13:59;16.55;;;6.38;;
42246;SDS011;27913;42.722;23.268;2023-02-12T07:16:25;14.48;;;6.05;;
42246;SDS011;27913;42.722;23.268;2023-02-12T07:18:51;14.05;;;5.90;;
42246;SDS011;27913;42.722;23.268;2023-02-12T07:21:16;18.58;;;5.85;;
42246;SDS011;27913;42.722;23.268;2023-02-12T07:23:47;13.02;;;5.93;;
42246;SDS011;27913;42.722;23.268;2023-02-12T07:26:13;13.35;;;5.72;;
42246;SDS011;27913;42.722;23.268;2023-02-12T07:28:39;10.00;;;4.68;;
42246;SDS011;27913;42.722;23.268;2023-02-12T07:31:06;14.90;;;5.43;;
42246;SDS011;27913;42.722;23.268;2023-02-12T07:33:32;5.13;;;2.40;;
42246;SDS011;27913;42.722;23.268;2023-02-12T07:36:02;5.53;;;2.30;;
42246;SDS011;27913;42.722;23.268;2023-02-12T07:38:29;11.70;;;4.25;;
42246;SDS011;27913;42.722;23.268;2023-02-12T07:40:54;11.20;;;4.03;;
42246;SDS011;27913;42.722;23.268;2023-02-12T07:43:22;14.23;;;6.60;;
42246;SDS011;27913;42.722;23.268;2023-02-12T07:45:48;12.77;;;5.25;;
42246;SDS011;27913;42.722;23.268;2023-02-12T07:48:14;19.95;;;8.00;;
42246;SDS011;27913;42.722;23.268;2023-02-12T07:50:39;10.20;;;4.90;;
42246;SDS011;27913;42.722;23.268;2023-02-12T07:53:05;8.63;;;3.03;;
42246;SDS011;27913;42.722;23.268;2023-02-12T07:55:30;18.15;;;7.97;;
42246;SDS011;27913;42.722;23.268;2023-02-12T07:57:56;1.05;;;0.90;;
42246;SDS011;27913;42.722;23.268;2023-02-12T08:00:21;8.20;;;4.20;;
42246;SDS011;27913;42.722;23.268;2023-02-12T08:02:51;15.18;;;6.90;;
42246;SDS011;27913;42.722;23.268;2023-02-12T08:05:17;20.23;;;7.77;;
42246;SDS011;27913;42.722;23.268;2023-02-12T08:07:43;15.52;;;6.95;;
42246;SDS011;27913;42.722;23.268;2023-02-12T08:10:08;17.50;;;6.80;;
42246;SDS011;27913;42.722;23.268;2023-02-12T08:12:34;8.30;;;2.75;;
42246;SDS011;27913;42.722;23.268;2023-02-12T08:14:59;17.13;;;7.20;;
42246;SDS011;27913;42.722;23.268;2023-02-12T08:17:25;20.33;;;7.20;;
42246;SDS011;27913;42.722;23.268;2023-02-12T08:19:50;16.42;;;7.40;;
42246;SDS011;27913;42.722;23.268;2023-02-12T08:22:16;24.08;;;9.02;;
42246;SDS011;27913;42.722;23.268;2023-02-12T08:24:42;17.27;;;7.72;;
42246;SDS011;27913;42.722;23.268;2023-02-12T08:27:08;14.40;;;6.85;;
42246;SDS011;27913;42.722;23.268;2023-02-12T08:29:34;16.00;;;6.85;;
42246;SDS011;27913;42.722;23.268;2023-02-12T08:32:00;17.85;;;8.90;;
42246;SDS011;27913;42.722;23.268;2023-02-12T08:34:32;16.83;;;7.20;;
42246;SDS011;27913;42.722;23.268;2023-02-12T08:36:59;18.50;;;7.45;;
42246;SDS011;27913;42.722;23.268;2023-02-12T08:39:25;16.27;;;7.15;;
42246;SDS011;27913;42.722;23.268;2023-02-12T08:41:53;10.60;;;4.53;;
42246;SDS011;27913;42.722;23.268;2023-02-12T08:44:19;21.35;;;9.40;;
42246;SDS011;27913;42.722;23.268;2023-02-12T08:46:46;17.85;;;8.40;;
42246;SDS011;27913;42.722;23.268;2023-02-12T08:49:15;32.85;;;12.52;;
42246;SDS011;27913;42.722;23.268;2023-02-12T08:51:44;22.67;;;9.70;;
42246;SDS011;27913;42.722;23.268;2023-02-12T08:54:13;19.00;;;9.57;;
42246;SDS011;27913;42.722;23.268;2023-02-12T08:56:42;14.68;;;6.82;;
42246;SDS011;27913;42.722;23.268;2023-02-12T08:59:10;22.77;;;10.18;;
42246;SDS011;27913;42.722;23.268;2023-02-12T09:01:36;21.90;;;9.43;;
42246;SDS011;27913;42.722;23.268;2023-02-12T09:04:03;19.52;;;9.13;;
42246;SDS011;27913;42.722;23.268;2023-02-12T09:06:30;19.15;;;8.65;;
42246;SDS011;27913;42.722;23.268;2023-02-12T09:08:58;26.70;;;11.63;;
42246;SDS011;27913;42.722;23.268;2023-02-12T09:11:24;21.00;;;10.15;;
42246;SDS011;27913;42.722;23.268;2023-02-12T09:14:02;17.50;;;7.32;;
42246;SDS011;27913;42.722;23.268;2023-02-12T09:16:29;16.45;;;6.45;;
42246;SDS011;27913;42.722;23.268;2023-02-12T09:18:57;20.70;;;9.63;;
42246;SDS011;27913;42.722;23.268;2023-02-12T09:21:23;20.45;;;9.77;;
42246;SDS011;27913;42.722;23.268;2023-02-12T09:23:48;16.55;;;7.40;;
42246;SDS011;27913;42.722;23.268;2023-02-12T09:26:18;21.15;;;11.15;;
42246;SDS011;27913;42.722;23.268;2023-02-12T09:31:11;21.83;;;9.65;;
42246;SDS011;27913;42.722;23.268;2023-02-12T09:33:39;21.35;;;10.07;;
42246;SDS011;27913;42.722;23.268;2023-02-12T09:36:06;21.75;;;10.07;;
42246;SDS011;27913;42.722;23.268;2023-02-12T09:38:33;15.68;;;6.32;;
42246;SDS011;27913;42.722;23.268;2023-02-12T09:41:07;20.40;;;9.55;;
42246;SDS011;27913;42.722;23.268;2023-02-12T09:46:36;22.50;;;11.30;;
42246;SDS011;27913;42.722;23.268;2023-02-12T09:49:08;19.05;;;8.23;;
42246;SDS011;27913;42.722;23.268;2023-02-12T09:51:40;19.45;;;7.65;;
42246;SDS011;27913;42.722;23.268;2023-02-12T09:54:12;5.78;;;2.85;;
42246;SDS011;27913;42.722;23.268;2023-02-12T09:56:40;17.77;;;9.18;;
42246;SDS011;27913;42.722;23.268;2023-02-12T09:59:10;16.92;;;7.32;;
42246;SDS011;27913;42.722;23.268;2023-02-12T10:01:42;13.93;;;6.45;;
42246;SDS011;27913;42.722;23.268;2023-02-12T10:04:07;19.33;;;8.50;;
42246;SDS011;27913;42.722;23.268;2023-02-12T10:06:35;22.65;;;10.18;;
42246;SDS011;27913;42.722;23.268;2023-02-12T10:17:46;19.00;;;8.77;;
42246;SDS011;27913;42.722;23.268;2023-02-12T10:25:57;30.52;;;12.45;;
42246;SDS011;27913;42.722;23.268;2023-02-12T10:28:29;23.25;;;9.82;;
42246;SDS011;27913;42.722;23.268;2023-02-12T10:30:59;27.33;;;13.82;;
42246;SDS011;27913;42.722;23.268;2023-02-12T10:33:35;27.40;;;12.77;;
42246;SDS011;27913;42.722;23.268;2023-02-12T10:41:45;6.03;;;2.70;;
42246;SDS011;27913;42.722;23.268;2023-02-12T10:44:13;9.65;;;4.00;;
42246;SDS011;27913;42.722;23.268;2023-02-12T10:46:39;25.48;;;10.32;;
42246;SDS011;27913;42.722;23.268;2023-02-12T10:49:05;26.75;;;11.57;;
42246;SDS011;27913;42.722;23.268;2023-02-12T10:54:52;26.42;;;11.48;;
42246;SDS011;27913;42.722;23.268;2023-02-12T10:57:23;24.20;;;10.88;;
42246;SDS011;27913;42.722;23.268;2023-02-12T10:59:52;16.35;;;8.02;;
42246;SDS011;27913;42.722;23.268;2023-02-12T11:02:23;11.95;;;5.38;;
42246;SDS011;27913;42.722;23.268;2023-02-12T11:04:49;25.90;;;11.90;;
42246;SDS011;27913;42.722;23.268;2023-02-12T11:07:15;17.88;;;7.95;;
42246;SDS011;27913;42.722;23.268;2023-02-12T11:09:43;22.60;;;10.48;;
42246;SDS011;27913;42.722;23.268;2023-02-12T11:12:29;27.88;;;11.30;;
42246;SDS011;27913;42.722;23.268;2023-02-12T11:15:00;28.33;;;11.45;;
42246;SDS011;27913;42.722;23.268;2023-02-12T11:20:01;11.52;;;5.22;;
42246;SDS011;27913;42.722;23.268;2023-02-12T11:22:48;1.42;;;0.93;;
42246;SDS011;27913;42.722;23.268;2023-02-12T11:25:20;27.63;;;12.45;;
42246;SDS011;27913;42.722;23.268;2023-02-12T11:30:52;10.80;;;4.78;;
42246;SDS011;27913;42.722;23.268;2023-02-12T11:36:17;26.92;;;11.88;;
42246;SDS011;27913;42.722;23.268;2023-02-12T11:38:51;24.10;;;10.48;;
42246;SDS011;27913;42.722;23.268;2023-02-12T11:44:20;21.70;;;9.57;;
42246;SDS011;27913;42.722;23.268;2023-02-12T11:46:52;16.10;;;7.47;;
42246;SDS011;27913;42.722;23.268;2023-02-12T11:49:23;16.10;;;7.60;;
42246;SDS011;27913;42.722;23.268;2023-02-12T11:51:52;16.75;;;8.02;;
42246;SDS011;27913;42.722;23.268;2023-02-12T11:54:21;21.05;;;9.57;;
42246;SDS011;27913;42.722;23.268;2023-02-12T11:56:49;18.65;;;8.43;;
42246;SDS011;27913;42.722;23.268;2023-02-12T11:59:30;20.60;;;10.20;;
42246;SDS011;27913;42.722;23.268;2023-02-12T12:02:00;6.53;;;1.90;;
42246;SDS011;27913;42.722;23.268;2023-02-12T12:04:38;24.42;;;11.57;;
42246;SDS011;27913;42.722;23.268;2023-02-12T12:07:16;23.00;;;9.07;;
42246;SDS011;27913;42.722;23.268;2023-02-12T12:10:11;21.25;;;9.70;;
42246;SDS011;27913;42.722;23.268;2023-02-12T12:12:47;29.20;;;11.77;;
42246;SDS011;27913;42.722;23.268;2023-02-12T12:15:20;22.63;;;9.48;;
42246;SDS011;27913;42.722;23.268;2023-02-12T12:21:16;23.27;;;10.50;;
42246;SDS011;27913;42.722;23.268;2023-02-12T12:23:45;24.30;;;11.77;;
42246;SDS011;27913;42.722;23.268;2023-02-12T12:26:21;27.73;;;12.73;;
42246;SDS011;27913;42.722;23.268;2023-02-12T12:28:52;25.30;;;10.88;;
42246;SDS011;27913;42.722;23.268;2023-02-12T12:31:33;22.58;;;10.32;;
42246;SDS011;27913;42.722;23.268;2023-02-12T12:34:08;10.52;;;4.13;;
42246;SDS011;27913;42.722;23.268;2023-02-12T12:36:47;21.42;;;10.07;;
42246;SDS011;27913;42.722;23.268;2023-02-12T12:39:26;21.88;;;10.35;;
42246;SDS011;27913;42.722;23.268;2023-02-12T12:52:59;23.15;;;10.60;;
42246;SDS011;27913;42.722;23.268;2023-02-12T13:13:06;4.38;;;2.28;;
42246;SDS011;27913;42.722;23.268;2023-02-12T13:15:47;20.23;;;7.18;;
42246;SDS011;27913;42.722;23.268;2023-02-12T13:18:35;21.60;;;10.40;;
42246;SDS011;27913;42.722;23.268;2023-02-12T13:29:22;23.10;;;10.23;;
42246;SDS011;27913;42.722;23.268;2023-02-12T13:34:38;22.80;;;11.18;;
42246;SDS011;27913;42.722;23.268;2023-02-12T13:37:06;17.02;;;7.25;;
42246;SDS011;27913;42.722;23.268;2023-02-12T13:39:42;20.38;;;8.50;;
42246;SDS011;27913;42.722;23.268;2023-02-12T13:50:44;19.65;;;8.63;;
42246;SDS011;27913;42.722;23.268;2023-02-12T13:53:18;28.55;;;13.02;;
42246;SDS011;27913;42.722;23.268;2023-02-12T14:01:05;24.70;;;11.38;;
42246;SDS011;27913;42.722;23.268;2023-02-12T14:03:33;23.35;;;10.70;;
42246;SDS011;27913;42.722;23.268;2023-02-12T14:06:21;23.10;;;10.48;;
42246;SDS011;27913;42.722;23.268;2023-02-12T14:08:53;15.93;;;7.22;;
42246;SDS011;27913;42.722;23.268;2023-02-12T14:11:33;26.45;;;11.40;;
42246;SDS011;27913;42.722;23.268;2023-02-12T14:14:11;25.95;;;10.73;;
42246;SDS011;27913;42.722;23.268;2023-02-12T14:16:38;23.08;;;11.50;;
42246;SDS011;27913;42.722;23.268;2023-02-12T14:22:09;15.27;;;6.97;;
42246;SDS011;27913;42.722;23.268;2023-02-12T14:27:16;26.58;;;12.52;;
42246;SDS011;27913;42.722;23.268;2023-02-12T14:37:54;22.10;;;10.82;;
42246;SDS011;27913;42.722;23.268;2023-02-12T14:40:29;20.88;;;10.88;;
42246;SDS011;27913;42.722;23.268;2023-02-12T14:42:57;30.25;;;14.57;;
42246;SDS011;27913;42.722;23.268;2023-02-12T14:45:33;29.77;;;14.70;;
42246;SDS011;27913;42.722;23.268;2023-02-12T14:48:00;28.58;;;13.75;;
42246;SDS011;27913;42.722;23.268;2023-02-12T14:50:29;30.38;;;14.73;;
42246;SDS011;27913;42.722;23.268;2023-02-12T14:53:09;27.10;;;13.77;;
42246;SDS011;27913;42.722;23.268;2023-02-12T14:55:46;29.52;;;15.63;;
42246;SDS011;27913;42.722;23.268;2023-02-12T14:58:19;28.15;;;14.55;;
42246;SDS011;27913;42.722;23.268;2023-02-12T15:00:49;32.30;;;16.45;;
42246;SDS011;27913;42.722;23.268;2023-02-12T15:03:19;31.88;;;12.65;;
42246;SDS011;27913;42.722;23.268;2023-02-12T15:05:52;30.17;;;14.07;;
42246;SDS011;27913;42.722;23.268;2023-02-12T15:08:25;28.25;;;12.95;;
42246;SDS011;27913;42.722;23.268;2023-02-12T15:11:05;28.92;;;11.65;;
42246;SDS011;27913;42.722;23.268;2023-02-12T15:26:33;35.30;;;15.38;;
42246;SDS011;27913;42.722;23.268;2023-02-12T15:31:50;20.10;;;9.63;;
42246;SDS011;27913;42.722;23.268;2023-02-12T15:34:19;37.60;;;17.40;;
42246;SDS011;27913;42.722;23.268;2023-02-12T15:36:48;28.92;;;13.38;;
42246;SDS011;27913;42.722;23.268;2023-02-12T15:39:15;26.35;;;12.85;;
42246;SDS011;27913;42.722;23.268;2023-02-12T15:41:44;28.52;;;11.93;;
42246;SDS011;27913;42.722;23.268;2023-02-12T15:47:29;28.90;;;12.02;;
42246;SDS011;27913;42.722;23.268;2023-02-12T15:49:38;28.60;;;13.00;;
42246;SDS011;27913;42.722;23.268;2023-02-12T15:52:13;23.45;;;11.60;;
42246;SDS011;27913;42.722;23.268;2023-02-12T15:54:43;29.55;;;14.52;;
42246;SDS011;27913;42.722;23.268;2023-02-12T15:57:10;18.58;;;8.27;;
42246;SDS011;27913;42.722;23.268;2023-02-12T15:59:38;31.35;;;13.40;;
42246;SDS011;27913;42.722;23.268;2023-02-12T16:02:18;31.35;;;14.45;;
42246;SDS011;27913;42.722;23.268;2023-02-12T16:04:49;35.70;;;15.90;;
42246;SDS011;27913;42.722;23.268;2023-02-12T16:07:15;36.20;;;15.07;;
42246;SDS011;27913;42.722;23.268;2023-02-12T16:09:42;27.83;;;13.02;;
42246;SDS011;27913;42.722;23.268;2023-02-12T16:12:09;36.13;;;16.05;;
42246;SDS011;27913;42.722;23.268;2023-02-12T16:14:39;38.42;;;17.52;;
42246;SDS011;27913;42.722;23.268;2023-02-12T16:17:19;13.03;;;6.10;;
42246;SDS011;27913;42.722;23.268;2023-02-12T16:19:52;36.28;;;15.82;;
42246;SDS011;27913;42.722;23.268;2023-02-12T16:22:26;31.13;;;13.40;;
42246;SDS011;27913;42.722;23.268;2023-02-12T16:25:02;30.27;;;11.50;;
42246;SDS011;27913;42.722;23.268;2023-02-12T16:27:33;34.05;;;14.98;;
42246;SDS011;27913;42.722;23.268;2023-02-12T16:30:00;28.70;;;13.63;;
42246;SDS011;27913;42.722;23.268;2023-02-12T16:32:33;30.13;;;14.52;;
42246;SDS011;27913;42.722;23.268;2023-02-12T16:42:36;31.67;;;14.27;;
42246;SDS011;27913;42.722;23.268;2023-02-12T16:47:57;27.25;;;12.85;;
42246;SDS011;27913;42.722;23.268;2023-02-12T16:50:29;34.75;;;15.88;;
42246;SDS011;27913;42.722;23.268;2023-02-12T16:53:03;34.13;;;13.27;;
42246;SDS011;27913;42.722;23.268;2023-02-12T16:55:31;32.20;;;14.52;;
42246;SDS011;27913;42.722;23.268;2023-02-12T16:57:57;28.00;;;12.75;;
42246;SDS011;27913;42.722;23.268;2023-02-12T17:00:23;33.38;;;13.77;;
42246;SDS011;27913;42.722;23.268;2023-02-12T17:02:50;43.45;;;16.85;;
42246;SDS011;27913;42.722;23.268;2023-02-12T17:05:21;39.20;;;18.05;;
42246;SDS011;27913;42.722;23.268;2023-02-12T17:07:54;37.58;;;16.98;;
42246;SDS011;27913;42.722;23.268;2023-02-12T17:10:19;30.33;;;14.27;;
42246;SDS011;27913;42.722;23.268;2023-02-12T17:15:14;33.67;;;14.70;;
42246;SDS011;27913;42.722;23.268;2023-02-12T17:17:45;42.40;;;18.90;;
42246;SDS011;27913;42.722;23.268;2023-02-12T17:20:11;44.95;;;17.60;;
42246;SDS011;27913;42.722;23.268;2023-02-12T17:22:36;41.90;;;18.02;;
42246;SDS011;27913;42.722;23.268;2023-02-12T17:25:04;41.85;;;18.77;;
42246;SDS011;27913;42.722;23.268;2023-02-12T17:27:30;37.65;;;15.68;;
42246;SDS011;27913;42.722;23.268;2023-02-12T17:29:55;29.80;;;13.00;;
42246;SDS011;27913;42.722;23.268;2023-02-12T17:32:20;30.65;;;13.55;;
42246;SDS011;27913;42.722;23.268;2023-02-12T17:34:48;39.40;;;15.75;;
42246;SDS011;27913;42.722;23.268;2023-02-12T17:37:14;33.95;;;15.57;;
42246;SDS011;27913;42.722;23.268;2023-02-12T17:39:42;29.45;;;13.88;;
42246;SDS011;27913;42.722;23.268;2023-02-12T17:42:07;39.10;;;16.58;;
42246;SDS011;27913;42.722;23.268;2023-02-12T17:44:33;36.10;;;16.13;;
42246;SDS011;27913;42.722;23.268;2023-02-12T17:47:01;32.75;;;14.93;;